sensor_id;sensor_type;location;lat;lon;timestamp;P1;durP1;ratioP1;P2;durP2;ratioP2
79493;SDS011;68951;53.130;18.104;2023-12-14T00:01:46;14.90;;;5.80;;
79493;SDS011;68951;53.130;18.104;2023-12-14T00:04:15;11.60;;;4.90;;
79493;SDS011;68951;53.130;18.104;2023-12-14T00:06:42;17.60;;;7.60;;
79493;SDS011;68951;53.130;18.104;2023-12-14T00:09:08;17.00;;;7.90;;
79493;SDS011;68951;53.130;18.104;2023-12-14T00:11:39;22.90;;;9.70;;
79493;SDS011;68951;53.130;18.104;2023-12-14T00:14:06;16.10;;;7.70;;
79493;SDS011;68951;53.130;18.104;2023-12-14T00:16:33;18.30;;;8.00;;
79493;SDS011;68951;53.130;18.104;2023-12-14T00:19:00;19.60;;;8.20;;
79493;SDS011;68951;53.130;18.104;2023-12-14T00:21:29;19.50;;;8.20;;
79493;SDS011;68951;53.130;18.104;2023-12-14T00:23:55;16.30;;;7.10;;
79493;SDS011;68951;53.130;18.104;2023-12-14T00:26:22;19.40;;;8.30;;
79493;SDS011;68951;53.130;18.104;2023-12-14T00:28:49;19.70;;;8.20;;
79493;SDS011;68951;53.130;18.104;2023-12-14T00:31:16;16.40;;;6.30;;
79493;SDS011;68951;53.130;18.104;2023-12-14T00:33:43;18.90;;;7.10;;
79493;SDS011;68951;53.130;18.104;2023-12-14T00:36:17;16.60;;;6.90;;
79493;SDS011;68951;53.130;18.104;2023-12-14T00:38:45;18.70;;;7.70;;
79493;SDS011;68951;53.130;18.104;2023-12-14T00:41:13;17.60;;;7.20;;
79493;SDS011;68951;53.130;18.104;2023-12-14T00:43:40;17.30;;;7.40;;
79493;SDS011;68951;53.130;18.104;2023-12-14T00:46:07;17.80;;;8.10;;
79493;SDS011;68951;53.130;18.104;2023-12-14T00:48:34;17.60;;;7.30;;
79493;SDS011;68951;53.130;18.104;2023-12-14T00:51:01;17.60;;;7.30;;
79493;SDS011;68951;53.130;18.104;2023-12-14T00:53:29;12.80;;;5.00;;
79493;SDS011;68951;53.130;18.104;2023-12-14T00:55:56;17.40;;;7.50;;
79493;SDS011;68951;53.130;18.104;2023-12-14T00:58:23;16.50;;;7.60;;
79493;SDS011;68951;53.130;18.104;2023-12-14T01:00:49;15.60;;;6.60;;
79493;SDS011;68951;53.130;18.104;2023-12-14T01:03:16;18.30;;;7.50;;
79493;SDS011;68951;53.130;18.104;2023-12-14T01:05:43;10.90;;;4.20;;
79493;SDS011;68951;53.130;18.104;2023-12-14T01:08:10;18.70;;;6.90;;
79493;SDS011;68951;53.130;18.104;2023-12-14T01:10:37;13.10;;;4.80;;
79493;SDS011;68951;53.130;18.104;2023-12-14T01:13:04;8.60;;;2.90;;
79493;SDS011;68951;53.130;18.104;2023-12-14T01:15:31;12.40;;;4.30;;
79493;SDS011;68951;53.130;18.104;2023-12-14T01:17:57;17.30;;;6.30;;
79493;SDS011;68951;53.130;18.104;2023-12-14T01:20:24;15.20;;;6.80;;
79493;SDS011;68951;53.130;18.104;2023-12-14T01:22:51;17.20;;;7.30;;
79493;SDS011;68951;53.130;18.104;2023-12-14T01:25:18;16.30;;;6.20;;
79493;SDS011;68951;53.130;18.104;2023-12-14T01:27:45;10.50;;;4.10;;
79493;SDS011;68951;53.130;18.104;2023-12-14T01:30:12;11.00;;;3.80;;
79493;SDS011;68951;53.130;18.104;2023-12-14T01:32:39;14.60;;;6.20;;
79493;SDS011;68951;53.130;18.104;2023-12-14T01:35:06;17.80;;;7.20;;
79493;SDS011;68951;53.130;18.104;2023-12-14T01:37:34;15.80;;;6.30;;
79493;SDS011;68951;53.130;18.104;2023-12-14T01:40:01;18.10;;;7.30;;
79493;SDS011;68951;53.130;18.104;2023-12-14T01:42:28;17.20;;;7.30;;
79493;SDS011;68951;53.130;18.104;2023-12-14T01:44:56;17.40;;;6.90;;
79493;SDS011;68951;53.130;18.104;2023-12-14T01:47:22;13.40;;;5.30;;
79493;SDS011;68951;53.130;18.104;2023-12-14T01:49:50;8.50;;;2.80;;
79493;SDS011;68951;53.130;18.104;2023-12-14T01:52:16;14.50;;;5.50;;
79493;SDS011;68951;53.130;18.104;2023-12-14T01:54:44;17.70;;;6.10;;
79493;SDS011;68951;53.130;18.104;2023-12-14T01:57:11;19.60;;;7.90;;
79493;SDS011;68951;53.130;18.104;2023-12-14T01:59:37;15.50;;;6.50;;
79493;SDS011;68951;53.130;18.104;2023-12-14T02:02:04;17.60;;;7.50;;
79493;SDS011;68951;53.130;18.104;2023-12-14T02:04:32;15.20;;;6.60;;
79493;SDS011;68951;53.130;18.104;2023-12-14T02:06:59;16.40;;;6.40;;
79493;SDS011;68951;53.130;18.104;2023-12-14T02:09:27;15.70;;;6.40;;
79493;SDS011;68951;53.130;18.104;2023-12-14T02:11:54;15.70;;;6.20;;
79493;SDS011;68951;53.130;18.104;2023-12-14T02:14:21;13.70;;;5.40;;
79493;SDS011;68951;53.130;18.104;2023-12-14T02:16:50;15.30;;;6.50;;
79493;SDS011;68951;53.130;18.104;2023-12-14T02:19:16;13.60;;;5.30;;
79493;SDS011;68951;53.130;18.104;2023-12-14T02:21:43;13.30;;;5.40;;
79493;SDS011;68951;53.130;18.104;2023-12-14T02:24:10;15.10;;;6.40;;
79493;SDS011;68951;53.130;18.104;2023-12-14T02:26:37;14.40;;;5.70;;
79493;SDS011;68951;53.130;18.104;2023-12-14T02:29:03;14.60;;;5.70;;
79493;SDS011;68951;53.130;18.104;2023-12-14T02:31:30;15.20;;;6.10;;
79493;SDS011;68951;53.130;18.104;2023-12-14T02:33:57;13.90;;;6.30;;
79493;SDS011;68951;53.130;18.104;2023-12-14T02:36:24;12.80;;;4.90;;
79493;SDS011;68951;53.130;18.104;2023-12-14T02:38:51;15.50;;;5.90;;
79493;SDS011;68951;53.130;18.104;2023-12-14T02:41:18;11.40;;;4.90;;
79493;SDS011;68951;53.130;18.104;2023-12-14T02:43:45;15.10;;;6.20;;
79493;SDS011;68951;53.130;18.104;2023-12-14T02:46:11;15.00;;;6.20;;
79493;SDS011;68951;53.130;18.104;2023-12-14T02:48:41;16.30;;;6.40;;
79493;SDS011;68951;53.130;18.104;2023-12-14T02:51:13;13.80;;;5.90;;
79493;SDS011;68951;53.130;18.104;2023-12-14T02:53:41;15.50;;;6.40;;
79493;SDS011;68951;53.130;18.104;2023-12-14T02:56:10;15.20;;;6.30;;
79493;SDS011;68951;53.130;18.104;2023-12-14T02:58:38;15.30;;;6.20;;
79493;SDS011;68951;53.130;18.104;2023-12-14T03:01:05;15.40;;;5.30;;
79493;SDS011;68951;53.130;18.104;2023-12-14T03:03:32;15.80;;;6.40;;
79493;SDS011;68951;53.130;18.104;2023-12-14T03:05:59;18.60;;;7.60;;
79493;SDS011;68951;53.130;18.104;2023-12-14T03:08:26;17.60;;;6.70;;
79493;SDS011;68951;53.130;18.104;2023-12-14T03:10:53;13.50;;;6.40;;
79493;SDS011;68951;53.130;18.104;2023-12-14T03:13:20;16.20;;;7.60;;
79493;SDS011;68951;53.130;18.104;2023-12-14T03:15:46;16.70;;;7.30;;
79493;SDS011;68951;53.130;18.104;2023-12-14T03:18:15;17.80;;;7.10;;
79493;SDS011;68951;53.130;18.104;2023-12-14T03:20:42;12.70;;;4.70;;
79493;SDS011;68951;53.130;18.104;2023-12-14T03:23:09;16.10;;;6.90;;
79493;SDS011;68951;53.130;18.104;2023-12-14T03:25:36;15.40;;;6.50;;
79493;SDS011;68951;53.130;18.104;2023-12-14T03:28:03;15.40;;;6.80;;
79493;SDS011;68951;53.130;18.104;2023-12-14T03:30:30;15.20;;;7.20;;
79493;SDS011;68951;53.130;18.104;2023-12-14T03:32:57;15.50;;;6.80;;
79493;SDS011;68951;53.130;18.104;2023-12-14T03:35:23;14.40;;;6.70;;
79493;SDS011;68951;53.130;18.104;2023-12-14T03:37:50;17.20;;;7.10;;
79493;SDS011;68951;53.130;18.104;2023-12-14T03:40:17;14.20;;;6.90;;
79493;SDS011;68951;53.130;18.104;2023-12-14T03:42:45;13.50;;;6.20;;
79493;SDS011;68951;53.130;18.104;2023-12-14T03:45:12;11.80;;;5.10;;
79493;SDS011;68951;53.130;18.104;2023-12-14T03:47:39;10.20;;;4.50;;
79493;SDS011;68951;53.130;18.104;2023-12-14T03:50:07;14.10;;;6.30;;
79493;SDS011;68951;53.130;18.104;2023-12-14T03:52:34;14.70;;;6.80;;
79493;SDS011;68951;53.130;18.104;2023-12-14T03:55:00;12.90;;;5.90;;
79493;SDS011;68951;53.130;18.104;2023-12-14T03:57:27;14.60;;;7.00;;
79493;SDS011;68951;53.130;18.104;2023-12-14T03:59:54;13.00;;;6.80;;
79493;SDS011;68951;53.130;18.104;2023-12-14T04:02:21;15.50;;;7.40;;
79493;SDS011;68951;53.130;18.104;2023-12-14T04:04:48;18.30;;;8.40;;
79493;SDS011;68951;53.130;18.104;2023-12-14T04:07:15;16.60;;;7.20;;
79493;SDS011;68951;53.130;18.104;2023-12-14T04:09:44;28.80;;;11.90;;
79493;SDS011;68951;53.130;18.104;2023-12-14T04:12:12;38.00;;;15.00;;
79493;SDS011;68951;53.130;18.104;2023-12-14T04:14:39;43.00;;;15.00;;
79493;SDS011;68951;53.130;18.104;2023-12-14T04:17:06;24.90;;;10.90;;
79493;SDS011;68951;53.130;18.104;2023-12-14T04:19:33;13.70;;;6.40;;
79493;SDS011;68951;53.130;18.104;2023-12-14T04:21:59;15.60;;;7.30;;
79493;SDS011;68951;53.130;18.104;2023-12-14T04:24:26;21.80;;;9.90;;
79493;SDS011;68951;53.130;18.104;2023-12-14T04:26:53;18.40;;;7.80;;
79493;SDS011;68951;53.130;18.104;2023-12-14T04:29:20;36.20;;;13.00;;
79493;SDS011;68951;53.130;18.104;2023-12-14T04:31:46;32.90;;;11.90;;
79493;SDS011;68951;53.130;18.104;2023-12-14T04:34:14;26.60;;;9.90;;
79493;SDS011;68951;53.130;18.104;2023-12-14T04:36:42;18.30;;;8.60;;
79493;SDS011;68951;53.130;18.104;2023-12-14T04:39:10;11.90;;;4.70;;
79493;SDS011;68951;53.130;18.104;2023-12-14T04:41:38;12.00;;;5.10;;
79493;SDS011;68951;53.130;18.104;2023-12-14T04:44:04;12.70;;;6.00;;
79493;SDS011;68951;53.130;18.104;2023-12-14T04:46:31;14.10;;;6.20;;
79493;SDS011;68951;53.130;18.104;2023-12-14T04:48:58;12.60;;;6.50;;
79493;SDS011;68951;53.130;18.104;2023-12-14T04:51:26;13.60;;;6.10;;
79493;SDS011;68951;53.130;18.104;2023-12-14T04:53:52;12.50;;;6.20;;
79493;SDS011;68951;53.130;18.104;2023-12-14T04:56:19;9.00;;;3.90;;
79493;SDS011;68951;53.130;18.104;2023-12-14T04:58:46;9.50;;;4.30;;
79493;SDS011;68951;53.130;18.104;2023-12-14T05:01:13;12.90;;;6.10;;
79493;SDS011;68951;53.130;18.104;2023-12-14T05:03:40;10.80;;;5.40;;
79493;SDS011;68951;53.130;18.104;2023-12-14T05:06:06;12.90;;;6.80;;
79493;SDS011;68951;53.130;18.104;2023-12-14T05:08:33;14.00;;;6.40;;
79493;SDS011;68951;53.130;18.104;2023-12-14T05:11:00;12.70;;;6.00;;
79493;SDS011;68951;53.130;18.104;2023-12-14T05:13:27;13.90;;;6.30;;
79493;SDS011;68951;53.130;18.104;2023-12-14T05:15:54;11.90;;;5.70;;
79493;SDS011;68951;53.130;18.104;2023-12-14T05:18:21;13.20;;;6.20;;
79493;SDS011;68951;53.130;18.104;2023-12-14T05:20:48;12.60;;;5.80;;
79493;SDS011;68951;53.130;18.104;2023-12-14T05:23:15;10.10;;;4.20;;
79493;SDS011;68951;53.130;18.104;2023-12-14T05:25:42;12.70;;;6.50;;
79493;SDS011;68951;53.130;18.104;2023-12-14T05:28:09;10.40;;;4.30;;
79493;SDS011;68951;53.130;18.104;2023-12-14T05:30:35;11.70;;;4.50;;
79493;SDS011;68951;53.130;18.104;2023-12-14T05:33:02;13.70;;;6.20;;
79493;SDS011;68951;53.130;18.104;2023-12-14T05:35:29;12.90;;;6.20;;
79493;SDS011;68951;53.130;18.104;2023-12-14T05:37:56;10.50;;;5.10;;
79493;SDS011;68951;53.130;18.104;2023-12-14T05:40:23;13.40;;;5.90;;
79493;SDS011;68951;53.130;18.104;2023-12-14T05:42:50;10.80;;;5.10;;
79493;SDS011;68951;53.130;18.104;2023-12-14T05:45:17;12.10;;;5.30;;
79493;SDS011;68951;53.130;18.104;2023-12-14T05:47:47;12.10;;;4.70;;
79493;SDS011;68951;53.130;18.104;2023-12-14T05:50:14;12.00;;;5.70;;
79493;SDS011;68951;53.130;18.104;2023-12-14T05:52:41;13.60;;;5.80;;
79493;SDS011;68951;53.130;18.104;2023-12-14T05:55:09;12.10;;;5.60;;
79493;SDS011;68951;53.130;18.104;2023-12-14T05:57:39;11.00;;;5.20;;
79493;SDS011;68951;53.130;18.104;2023-12-14T06:00:06;12.30;;;5.90;;
79493;SDS011;68951;53.130;18.104;2023-12-14T06:02:34;14.30;;;6.60;;
79493;SDS011;68951;53.130;18.104;2023-12-14T06:05:03;14.10;;;7.20;;
79493;SDS011;68951;53.130;18.104;2023-12-14T06:07:30;12.80;;;5.90;;
79493;SDS011;68951;53.130;18.104;2023-12-14T06:09:57;14.00;;;6.00;;
79493;SDS011;68951;53.130;18.104;2023-12-14T06:12:24;12.50;;;6.10;;
79493;SDS011;68951;53.130;18.104;2023-12-14T06:14:51;12.10;;;5.30;;
79493;SDS011;68951;53.130;18.104;2023-12-14T06:17:17;13.10;;;6.30;;
79493;SDS011;68951;53.130;18.104;2023-12-14T06:19:45;11.80;;;5.80;;
79493;SDS011;68951;53.130;18.104;2023-12-14T06:22:11;14.00;;;6.00;;
79493;SDS011;68951;53.130;18.104;2023-12-14T06:24:38;13.40;;;6.50;;
79493;SDS011;68951;53.130;18.104;2023-12-14T06:27:05;11.40;;;6.00;;
79493;SDS011;68951;53.130;18.104;2023-12-14T06:29:32;11.30;;;4.90;;
79493;SDS011;68951;53.130;18.104;2023-12-14T06:31:59;10.30;;;4.10;;
79493;SDS011;68951;53.130;18.104;2023-12-14T06:34:26;9.80;;;4.30;;
79493;SDS011;68951;53.130;18.104;2023-12-14T06:36:53;11.30;;;4.90;;
79493;SDS011;68951;53.130;18.104;2023-12-14T06:39:20;12.10;;;6.00;;
79493;SDS011;68951;53.130;18.104;2023-12-14T06:41:47;14.90;;;5.90;;
79493;SDS011;68951;53.130;18.104;2023-12-14T06:44:14;14.10;;;5.70;;
79493;SDS011;68951;53.130;18.104;2023-12-14T06:46:41;13.00;;;5.80;;
79493;SDS011;68951;53.130;18.104;2023-12-14T06:49:07;14.10;;;6.50;;
79493;SDS011;68951;53.130;18.104;2023-12-14T06:51:34;10.90;;;4.10;;
79493;SDS011;68951;53.130;18.104;2023-12-14T06:54:01;11.70;;;5.00;;
79493;SDS011;68951;53.130;18.104;2023-12-14T06:56:28;11.50;;;5.10;;
79493;SDS011;68951;53.130;18.104;2023-12-14T06:58:55;12.00;;;5.70;;
79493;SDS011;68951;53.130;18.104;2023-12-14T07:01:22;13.00;;;6.00;;
79493;SDS011;68951;53.130;18.104;2023-12-14T07:03:49;12.30;;;6.00;;
79493;SDS011;68951;53.130;18.104;2023-12-14T07:06:17;12.30;;;5.90;;
79493;SDS011;68951;53.130;18.104;2023-12-14T07:08:44;11.50;;;5.60;;
79493;SDS011;68951;53.130;18.104;2023-12-14T07:11:12;7.30;;;2.80;;
79493;SDS011;68951;53.130;18.104;2023-12-14T07:13:39;12.20;;;5.80;;
79493;SDS011;68951;53.130;18.104;2023-12-14T07:16:08;11.90;;;5.50;;
79493;SDS011;68951;53.130;18.104;2023-12-14T07:18:38;9.10;;;4.00;;
79493;SDS011;68951;53.130;18.104;2023-12-14T07:21:08;13.20;;;5.40;;
79493;SDS011;68951;53.130;18.104;2023-12-14T07:23:36;13.70;;;6.20;;
79493;SDS011;68951;53.130;18.104;2023-12-14T07:26:03;12.10;;;5.60;;
79493;SDS011;68951;53.130;18.104;2023-12-14T07:28:30;10.10;;;4.90;;
79493;SDS011;68951;53.130;18.104;2023-12-14T07:30:57;11.70;;;5.70;;
79493;SDS011;68951;53.130;18.104;2023-12-14T07:33:25;9.00;;;4.40;;
79493;SDS011;68951;53.130;18.104;2023-12-14T07:35:52;10.90;;;4.40;;
79493;SDS011;68951;53.130;18.104;2023-12-14T07:38:19;11.40;;;4.70;;
79493;SDS011;68951;53.130;18.104;2023-12-14T07:40:47;10.20;;;4.50;;
79493;SDS011;68951;53.130;18.104;2023-12-14T07:43:17;10.60;;;4.40;;
79493;SDS011;68951;53.130;18.104;2023-12-14T07:45:44;13.60;;;5.90;;
79493;SDS011;68951;53.130;18.104;2023-12-14T07:48:12;12.50;;;5.70;;
79493;SDS011;68951;53.130;18.104;2023-12-14T07:50:38;11.00;;;4.90;;
79493;SDS011;68951;53.130;18.104;2023-12-14T07:53:06;11.80;;;5.20;;
79493;SDS011;68951;53.130;18.104;2023-12-14T07:55:33;12.40;;;5.30;;
79493;SDS011;68951;53.130;18.104;2023-12-14T07:58:00;13.50;;;5.80;;
79493;SDS011;68951;53.130;18.104;2023-12-14T08:00:27;10.30;;;4.70;;
79493;SDS011;68951;53.130;18.104;2023-12-14T08:02:55;10.40;;;4.60;;
79493;SDS011;68951;53.130;18.104;2023-12-14T08:05:22;15.00;;;6.80;;
79493;SDS011;68951;53.130;18.104;2023-12-14T08:07:49;10.60;;;5.00;;
79493;SDS011;68951;53.130;18.104;2023-12-14T08:10:18;13.30;;;5.50;;
79493;SDS011;68951;53.130;18.104;2023-12-14T08:12:46;11.50;;;5.10;;
79493;SDS011;68951;53.130;18.104;2023-12-14T08:15:14;14.30;;;5.70;;
79493;SDS011;68951;53.130;18.104;2023-12-14T08:17:41;12.50;;;5.40;;
79493;SDS011;68951;53.130;18.104;2023-12-14T08:20:09;10.00;;;4.40;;
79493;SDS011;68951;53.130;18.104;2023-12-14T08:22:38;14.00;;;6.50;;
79493;SDS011;68951;53.130;18.104;2023-12-14T08:25:12;11.40;;;4.90;;
79493;SDS011;68951;53.130;18.104;2023-12-14T08:27:41;11.40;;;4.20;;
79493;SDS011;68951;53.130;18.104;2023-12-14T08:30:11;8.90;;;3.90;;
79493;SDS011;68951;53.130;18.104;2023-12-14T08:32:40;11.90;;;5.40;;
79493;SDS011;68951;53.130;18.104;2023-12-14T08:35:07;10.20;;;4.40;;
79493;SDS011;68951;53.130;18.104;2023-12-14T08:37:37;10.10;;;3.60;;
79493;SDS011;68951;53.130;18.104;2023-12-14T08:40:05;10.30;;;4.60;;
79493;SDS011;68951;53.130;18.104;2023-12-14T08:42:33;12.00;;;5.10;;
79493;SDS011;68951;53.130;18.104;2023-12-14T08:45:00;9.40;;;4.10;;
79493;SDS011;68951;53.130;18.104;2023-12-14T08:47:28;9.30;;;4.50;;
79493;SDS011;68951;53.130;18.104;2023-12-14T08:49:55;8.60;;;3.70;;
79493;SDS011;68951;53.130;18.104;2023-12-14T08:52:22;8.20;;;3.30;;
79493;SDS011;68951;53.130;18.104;2023-12-14T08:54:49;8.90;;;3.30;;
79493;SDS011;68951;53.130;18.104;2023-12-14T08:57:16;10.60;;;4.30;;
79493;SDS011;68951;53.130;18.104;2023-12-14T08:59:44;10.80;;;5.10;;
79493;SDS011;68951;53.130;18.104;2023-12-14T09:02:11;10.70;;;4.00;;
79493;SDS011;68951;53.130;18.104;2023-12-14T09:04:38;11.30;;;3.80;;
79493;SDS011;68951;53.130;18.104;2023-12-14T09:07:05;10.40;;;4.50;;
79493;SDS011;68951;53.130;18.104;2023-12-14T09:09:33;10.20;;;4.00;;
79493;SDS011;68951;53.130;18.104;2023-12-14T09:11:59;10.50;;;3.50;;
79493;SDS011;68951;53.130;18.104;2023-12-14T09:14:27;6.90;;;2.90;;
79493;SDS011;68951;53.130;18.104;2023-12-14T09:16:54;9.70;;;3.60;;
79493;SDS011;68951;53.130;18.104;2023-12-14T09:19:20;8.30;;;3.70;;
79493;SDS011;68951;53.130;18.104;2023-12-14T09:21:48;8.80;;;3.90;;
79493;SDS011;68951;53.130;18.104;2023-12-14T09:24:15;9.10;;;4.60;;
79493;SDS011;68951;53.130;18.104;2023-12-14T09:26:42;10.20;;;4.10;;
79493;SDS011;68951;53.130;18.104;2023-12-14T09:29:09;11.80;;;4.80;;
79493;SDS011;68951;53.130;18.104;2023-12-14T09:31:36;8.00;;;3.80;;
79493;SDS011;68951;53.130;18.104;2023-12-14T09:34:03;10.80;;;4.40;;
79493;SDS011;68951;53.130;18.104;2023-12-14T09:36:30;9.90;;;4.00;;
79493;SDS011;68951;53.130;18.104;2023-12-14T09:38:58;7.40;;;3.30;;
79493;SDS011;68951;53.130;18.104;2023-12-14T09:41:25;8.90;;;3.80;;
79493;SDS011;68951;53.130;18.104;2023-12-14T09:43:52;8.60;;;3.40;;
79493;SDS011;68951;53.130;18.104;2023-12-14T09:46:20;9.10;;;4.10;;
79493;SDS011;68951;53.130;18.104;2023-12-14T09:48:50;7.00;;;2.90;;
79493;SDS011;68951;53.130;18.104;2023-12-14T09:51:17;7.00;;;2.80;;
79493;SDS011;68951;53.130;18.104;2023-12-14T09:53:45;9.40;;;4.10;;
79493;SDS011;68951;53.130;18.104;2023-12-14T09:56:13;9.20;;;4.10;;
79493;SDS011;68951;53.130;18.104;2023-12-14T09:58:41;8.00;;;3.70;;
79493;SDS011;68951;53.130;18.104;2023-12-14T10:01:25;7.60;;;3.10;;
79493;SDS011;68951;53.130;18.104;2023-12-14T10:04:13;8.70;;;4.00;;
79493;SDS011;68951;53.130;18.104;2023-12-14T10:06:43;7.30;;;2.80;;
79493;SDS011;68951;53.130;18.104;2023-12-14T10:09:11;8.20;;;3.80;;
79493;SDS011;68951;53.130;18.104;2023-12-14T10:11:43;6.90;;;2.80;;
79493;SDS011;68951;53.130;18.104;2023-12-14T10:14:18;7.60;;;3.40;;
79493;SDS011;68951;53.130;18.104;2023-12-14T10:16:49;7.90;;;3.20;;
79493;SDS011;68951;53.130;18.104;2023-12-14T10:19:20;7.50;;;3.10;;
79493;SDS011;68951;53.130;18.104;2023-12-14T10:21:48;7.20;;;3.30;;
79493;SDS011;68951;53.130;18.104;2023-12-14T10:24:17;7.10;;;2.70;;
79493;SDS011;68951;53.130;18.104;2023-12-14T10:26:47;5.80;;;2.40;;
79493;SDS011;68951;53.130;18.104;2023-12-14T10:29:15;9.80;;;3.90;;
79493;SDS011;68951;53.130;18.104;2023-12-14T10:31:43;10.20;;;4.20;;
79493;SDS011;68951;53.130;18.104;2023-12-14T10:34:10;9.30;;;4.30;;
79493;SDS011;68951;53.130;18.104;2023-12-14T10:36:40;10.00;;;4.50;;
79493;SDS011;68951;53.130;18.104;2023-12-14T10:39:12;9.10;;;4.00;;
79493;SDS011;68951;53.130;18.104;2023-12-14T10:41:43;10.30;;;3.90;;
79493;SDS011;68951;53.130;18.104;2023-12-14T10:44:14;7.70;;;3.40;;
79493;SDS011;68951;53.130;18.104;2023-12-14T10:46:42;7.50;;;3.40;;
79493;SDS011;68951;53.130;18.104;2023-12-14T10:49:12;6.90;;;2.60;;
79493;SDS011;68951;53.130;18.104;2023-12-14T10:51:40;6.70;;;2.70;;
79493;SDS011;68951;53.130;18.104;2023-12-14T10:54:09;8.70;;;3.40;;
79493;SDS011;68951;53.130;18.104;2023-12-14T10:56:36;7.30;;;2.90;;
79493;SDS011;68951;53.130;18.104;2023-12-14T10:59:03;7.50;;;2.60;;
79493;SDS011;68951;53.130;18.104;2023-12-14T11:01:32;7.00;;;2.70;;
79493;SDS011;68951;53.130;18.104;2023-12-14T11:04:01;9.20;;;2.90;;
79493;SDS011;68951;53.130;18.104;2023-12-14T11:06:32;10.50;;;4.70;;
79493;SDS011;68951;53.130;18.104;2023-12-14T11:09:07;8.50;;;4.00;;
79493;SDS011;68951;53.130;18.104;2023-12-14T11:14:20;9.10;;;4.00;;
79493;SDS011;68951;53.130;18.104;2023-12-14T11:16:51;9.80;;;4.40;;
79493;SDS011;68951;53.130;18.104;2023-12-14T11:22:42;7.80;;;2.90;;
79493;SDS011;68951;53.130;18.104;2023-12-14T11:24:51;7.60;;;2.10;;
79493;SDS011;68951;53.130;18.104;2023-12-14T11:27:29;7.10;;;2.70;;
79493;SDS011;68951;53.130;18.104;2023-12-14T11:29:57;6.70;;;2.60;;
79493;SDS011;68951;53.130;18.104;2023-12-14T11:32:25;7.10;;;2.40;;
79493;SDS011;68951;53.130;18.104;2023-12-14T11:34:53;6.30;;;2.50;;
79493;SDS011;68951;53.130;18.104;2023-12-14T11:37:22;6.90;;;2.30;;
79493;SDS011;68951;53.130;18.104;2023-12-14T11:39:49;8.00;;;3.10;;
79493;SDS011;68951;53.130;18.104;2023-12-14T11:42:18;9.60;;;3.80;;
79493;SDS011;68951;53.130;18.104;2023-12-14T11:44:45;8.80;;;3.50;;
79493;SDS011;68951;53.130;18.104;2023-12-14T11:47:12;9.00;;;3.40;;
79493;SDS011;68951;53.130;18.104;2023-12-14T11:49:39;8.50;;;3.80;;
79493;SDS011;68951;53.130;18.104;2023-12-14T11:52:07;7.30;;;3.30;;
79493;SDS011;68951;53.130;18.104;2023-12-14T11:54:36;7.40;;;3.10;;
79493;SDS011;68951;53.130;18.104;2023-12-14T11:57:04;9.10;;;3.40;;
79493;SDS011;68951;53.130;18.104;2023-12-14T11:59:35;8.70;;;3.70;;
79493;SDS011;68951;53.130;18.104;2023-12-14T12:02:03;9.20;;;3.70;;
79493;SDS011;68951;53.130;18.104;2023-12-14T12:04:30;8.10;;;3.40;;
79493;SDS011;68951;53.130;18.104;2023-12-14T12:07:02;8.40;;;3.20;;
79493;SDS011;68951;53.130;18.104;2023-12-14T12:09:35;6.80;;;2.90;;
79493;SDS011;68951;53.130;18.104;2023-12-14T12:12:08;7.60;;;2.90;;
79493;SDS011;68951;53.130;18.104;2023-12-14T12:14:38;7.60;;;2.70;;
79493;SDS011;68951;53.130;18.104;2023-12-14T12:17:06;7.10;;;2.50;;
79493;SDS011;68951;53.130;18.104;2023-12-14T12:19:35;5.60;;;2.20;;
79493;SDS011;68951;53.130;18.104;2023-12-14T12:22:03;8.80;;;3.90;;
79493;SDS011;68951;53.130;18.104;2023-12-14T12:24:31;8.80;;;3.30;;
79493;SDS011;68951;53.130;18.104;2023-12-14T12:26:57;8.30;;;3.50;;
79493;SDS011;68951;53.130;18.104;2023-12-14T12:29:24;7.90;;;3.40;;
79493;SDS011;68951;53.130;18.104;2023-12-14T12:31:52;8.60;;;2.60;;
79493;SDS011;68951;53.130;18.104;2023-12-14T12:34:19;8.30;;;2.90;;
79493;SDS011;68951;53.130;18.104;2023-12-14T12:36:46;7.90;;;2.60;;
79493;SDS011;68951;53.130;18.104;2023-12-14T12:39:13;9.80;;;2.70;;
79493;SDS011;68951;53.130;18.104;2023-12-14T12:41:40;5.90;;;2.00;;
79493;SDS011;68951;53.130;18.104;2023-12-14T12:44:08;4.70;;;1.40;;
79493;SDS011;68951;53.130;18.104;2023-12-14T12:46:35;6.30;;;2.30;;
79493;SDS011;68951;53.130;18.104;2023-12-14T12:49:03;6.60;;;2.50;;
79493;SDS011;68951;53.130;18.104;2023-12-14T12:51:32;6.20;;;2.60;;
79493;SDS011;68951;53.130;18.104;2023-12-14T12:53:59;7.70;;;2.50;;
79493;SDS011;68951;53.130;18.104;2023-12-14T12:56:27;7.10;;;2.40;;
79493;SDS011;68951;53.130;18.104;2023-12-14T12:58:55;7.10;;;2.40;;
79493;SDS011;68951;53.130;18.104;2023-12-14T13:01:22;11.60;;;3.20;;
79493;SDS011;68951;53.130;18.104;2023-12-14T13:03:54;7.60;;;2.90;;
79493;SDS011;68951;53.130;18.104;2023-12-14T13:06:24;9.40;;;2.90;;
79493;SDS011;68951;53.130;18.104;2023-12-14T13:08:52;9.40;;;3.10;;
79493;SDS011;68951;53.130;18.104;2023-12-14T13:11:20;6.90;;;2.80;;
79493;SDS011;68951;53.130;18.104;2023-12-14T13:13:47;6.50;;;2.20;;
79493;SDS011;68951;53.130;18.104;2023-12-14T13:16:15;8.40;;;2.10;;
79493;SDS011;68951;53.130;18.104;2023-12-14T13:18:43;4.60;;;1.40;;
79493;SDS011;68951;53.130;18.104;2023-12-14T13:21:12;6.10;;;1.80;;
79493;SDS011;68951;53.130;18.104;2023-12-14T13:23:39;5.50;;;1.60;;
79493;SDS011;68951;53.130;18.104;2023-12-14T13:26:06;6.60;;;2.10;;
79493;SDS011;68951;53.130;18.104;2023-12-14T13:28:34;5.60;;;2.00;;
79493;SDS011;68951;53.130;18.104;2023-12-14T13:31:01;5.00;;;1.70;;
79493;SDS011;68951;53.130;18.104;2023-12-14T13:33:29;5.10;;;1.60;;
79493;SDS011;68951;53.130;18.104;2023-12-14T13:35:56;4.30;;;1.50;;
79493;SDS011;68951;53.130;18.104;2023-12-14T13:38:22;7.10;;;1.90;;
79493;SDS011;68951;53.130;18.104;2023-12-14T13:40:49;3.70;;;0.90;;
79493;SDS011;68951;53.130;18.104;2023-12-14T13:43:16;6.70;;;2.20;;
79493;SDS011;68951;53.130;18.104;2023-12-14T13:45:43;6.80;;;2.30;;
79493;SDS011;68951;53.130;18.104;2023-12-14T13:48:11;8.60;;;3.00;;
79493;SDS011;68951;53.130;18.104;2023-12-14T13:50:37;8.20;;;3.00;;
79493;SDS011;68951;53.130;18.104;2023-12-14T13:53:04;6.90;;;2.80;;
79493;SDS011;68951;53.130;18.104;2023-12-14T13:55:31;7.50;;;2.80;;
79493;SDS011;68951;53.130;18.104;2023-12-14T13:57:58;6.40;;;2.50;;
79493;SDS011;68951;53.130;18.104;2023-12-14T14:00:27;6.80;;;2.40;;
79493;SDS011;68951;53.130;18.104;2023-12-14T14:02:54;5.80;;;2.00;;
79493;SDS011;68951;53.130;18.104;2023-12-14T14:05:21;8.00;;;2.00;;
79493;SDS011;68951;53.130;18.104;2023-12-14T14:07:48;6.30;;;2.00;;
79493;SDS011;68951;53.130;18.104;2023-12-14T14:10:15;7.70;;;2.50;;
79493;SDS011;68951;53.130;18.104;2023-12-14T14:12:43;6.50;;;2.10;;
79493;SDS011;68951;53.130;18.104;2023-12-14T14:15:10;5.30;;;1.40;;
79493;SDS011;68951;53.130;18.104;2023-12-14T14:17:37;6.50;;;2.30;;
79493;SDS011;68951;53.130;18.104;2023-12-14T14:20:05;5.30;;;1.60;;
79493;SDS011;68951;53.130;18.104;2023-12-14T14:22:33;4.70;;;1.70;;
79493;SDS011;68951;53.130;18.104;2023-12-14T14:25:00;9.80;;;2.50;;
79493;SDS011;68951;53.130;18.104;2023-12-14T14:27:27;7.10;;;3.20;;
79493;SDS011;68951;53.130;18.104;2023-12-14T14:29:54;6.60;;;2.50;;
79493;SDS011;68951;53.130;18.104;2023-12-14T14:32:22;6.90;;;3.70;;
79493;SDS011;68951;53.130;18.104;2023-12-14T14:34:50;9.20;;;3.00;;